sensor_id;sensor_type;location;lat;lon;timestamp;P1;durP1;ratioP1;P2;durP2;ratioP2
72649;SDS011;61467;50.674;4.618;2022-08-19T00:00:56;14.77;;;9.52;;
72649;SDS011;61467;50.674;4.618;2022-08-19T00:03:24;15.63;;;10.05;;
72649;SDS011;61467;50.674;4.618;2022-08-19T00:05:50;15.00;;;9.75;;
72649;SDS011;61467;50.674;4.618;2022-08-19T00:08:17;15.40;;;10.23;;
72649;SDS011;61467;50.674;4.618;2022-08-19T00:10:45;15.65;;;10.38;;
72649;SDS011;61467;50.674;4.618;2022-08-19T00:13:12;15.85;;;11.10;;
72649;SDS011;61467;50.674;4.618;2022-08-19T00:15:40;17.23;;;10.77;;
72649;SDS011;61467;50.674;4.618;2022-08-19T00:18:09;17.90;;;11.05;;
72649;SDS011;61467;50.674;4.618;2022-08-19T00:20:36;18.87;;;11.57;;
72649;SDS011;61467;50.674;4.618;2022-08-19T00:23:05;16.20;;;11.55;;
72649;SDS011;61467;50.674;4.618;2022-08-19T00:25:32;18.25;;;12.00;;
72649;SDS011;61467;50.674;4.618;2022-08-19T00:28:00;17.00;;;11.80;;
72649;SDS011;61467;50.674;4.618;2022-08-19T00:30:26;19.42;;;13.13;;
72649;SDS011;61467;50.674;4.618;2022-08-19T00:32:53;16.67;;;12.43;;
72649;SDS011;61467;50.674;4.618;2022-08-19T00:35:21;16.70;;;12.65;;
72649;SDS011;61467;50.674;4.618;2022-08-19T00:37:48;16.85;;;12.43;;
72649;SDS011;61467;50.674;4.618;2022-08-19T00:40:16;18.25;;;12.27;;
72649;SDS011;61467;50.674;4.618;2022-08-19T00:42:44;17.67;;;12.50;;
72649;SDS011;61467;50.674;4.618;2022-08-19T00:45:14;17.23;;;11.30;;
72649;SDS011;61467;50.674;4.618;2022-08-19T00:47:42;15.68;;;10.65;;
72649;SDS011;61467;50.674;4.618;2022-08-19T00:50:10;17.13;;;11.18;;
72649;SDS011;61467;50.674;4.618;2022-08-19T00:52:40;14.90;;;10.57;;
72649;SDS011;61467;50.674;4.618;2022-08-19T00:55:10;18.17;;;11.32;;
72649;SDS011;61467;50.674;4.618;2022-08-19T00:57:40;16.70;;;12.00;;
72649;SDS011;61467;50.674;4.618;2022-08-19T01:00:11;15.05;;;10.60;;
72649;SDS011;61467;50.674;4.618;2022-08-19T01:02:45;19.23;;;11.70;;
72649;SDS011;61467;50.674;4.618;2022-08-19T01:05:14;17.95;;;11.63;;
72649;SDS011;61467;50.674;4.618;2022-08-19T01:07:43;17.77;;;12.80;;
72649;SDS011;61467;50.674;4.618;2022-08-19T01:10:12;16.80;;;11.50;;
72649;SDS011;61467;50.674;4.618;2022-08-19T01:12:48;18.65;;;11.50;;
72649;SDS011;61467;50.674;4.618;2022-08-19T01:15:18;18.20;;;11.93;;
72649;SDS011;61467;50.674;4.618;2022-08-19T01:17:51;19.15;;;12.50;;
72649;SDS011;61467;50.674;4.618;2022-08-19T01:20:20;18.92;;;12.55;;
72649;SDS011;61467;50.674;4.618;2022-08-19T01:22:53;18.93;;;12.37;;
72649;SDS011;61467;50.674;4.618;2022-08-19T01:25:22;17.95;;;12.35;;
72649;SDS011;61467;50.674;4.618;2022-08-19T01:27:51;21.95;;;14.50;;
72649;SDS011;61467;50.674;4.618;2022-08-19T01:30:20;21.65;;;13.02;;
72649;SDS011;61467;50.674;4.618;2022-08-19T01:32:49;20.92;;;12.43;;
72649;SDS011;61467;50.674;4.618;2022-08-19T01:35:16;21.83;;;14.10;;
72649;SDS011;61467;50.674;4.618;2022-08-19T01:37:44;22.75;;;14.45;;
72649;SDS011;61467;50.674;4.618;2022-08-19T01:40:13;20.15;;;12.88;;
72649;SDS011;61467;50.674;4.618;2022-08-19T01:42:41;25.17;;;14.63;;
72649;SDS011;61467;50.674;4.618;2022-08-19T01:45:08;24.58;;;15.75;;
72649;SDS011;61467;50.674;4.618;2022-08-19T01:47:35;23.67;;;14.93;;
72649;SDS011;61467;50.674;4.618;2022-08-19T01:50:03;22.05;;;13.77;;
72649;SDS011;61467;50.674;4.618;2022-08-19T01:52:32;24.48;;;14.45;;
72649;SDS011;61467;50.674;4.618;2022-08-19T01:55:01;19.33;;;12.25;;
72649;SDS011;61467;50.674;4.618;2022-08-19T01:57:29;22.75;;;13.90;;
72649;SDS011;61467;50.674;4.618;2022-08-19T01:59:56;24.50;;;15.80;;
72649;SDS011;61467;50.674;4.618;2022-08-19T02:02:24;25.15;;;15.73;;
72649;SDS011;61467;50.674;4.618;2022-08-19T02:04:50;25.25;;;15.07;;
72649;SDS011;61467;50.674;4.618;2022-08-19T02:07:18;26.42;;;16.38;;
72649;SDS011;61467;50.674;4.618;2022-08-19T02:09:46;24.55;;;15.52;;
72649;SDS011;61467;50.674;4.618;2022-08-19T02:12:13;24.80;;;16.43;;
72649;SDS011;61467;50.674;4.618;2022-08-19T02:14:42;28.50;;;17.77;;
72649;SDS011;61467;50.674;4.618;2022-08-19T02:17:09;27.00;;;16.08;;
72649;SDS011;61467;50.674;4.618;2022-08-19T02:19:36;27.83;;;16.98;;
72649;SDS011;61467;50.674;4.618;2022-08-19T02:22:03;27.75;;;15.90;;
72649;SDS011;61467;50.674;4.618;2022-08-19T02:24:30;26.83;;;16.30;;
72649;SDS011;61467;50.674;4.618;2022-08-19T02:26:56;29.65;;;18.65;;
72649;SDS011;61467;50.674;4.618;2022-08-19T02:29:23;28.45;;;17.77;;
72649;SDS011;61467;50.674;4.618;2022-08-19T02:31:51;30.17;;;16.95;;
72649;SDS011;61467;50.674;4.618;2022-08-19T02:34:18;29.15;;;18.33;;
72649;SDS011;61467;50.674;4.618;2022-08-19T02:36:45;29.17;;;17.77;;
72649;SDS011;61467;50.674;4.618;2022-08-19T02:39:11;26.33;;;15.50;;
72649;SDS011;61467;50.674;4.618;2022-08-19T02:41:37;28.00;;;17.45;;
72649;SDS011;61467;50.674;4.618;2022-08-19T02:44:04;27.48;;;17.10;;
72649;SDS011;61467;50.674;4.618;2022-08-19T02:46:32;26.93;;;17.50;;
72649;SDS011;61467;50.674;4.618;2022-08-19T02:49:01;31.15;;;18.98;;
72649;SDS011;61467;50.674;4.618;2022-08-19T02:51:31;28.67;;;16.77;;
72649;SDS011;61467;50.674;4.618;2022-08-19T02:53:59;28.30;;;16.58;;
72649;SDS011;61467;50.674;4.618;2022-08-19T02:56:34;26.73;;;16.88;;
72649;SDS011;61467;50.674;4.618;2022-08-19T02:59:02;28.80;;;17.77;;
72649;SDS011;61467;50.674;4.618;2022-08-19T03:01:32;27.63;;;16.88;;
72649;SDS011;61467;50.674;4.618;2022-08-19T03:04:01;28.67;;;16.92;;
72649;SDS011;61467;50.674;4.618;2022-08-19T03:06:30;23.88;;;14.43;;
72649;SDS011;61467;50.674;4.618;2022-08-19T03:08:57;28.25;;;16.48;;
72649;SDS011;61467;50.674;4.618;2022-08-19T03:11:25;27.83;;;16.47;;
72649;SDS011;61467;50.674;4.618;2022-08-19T03:13:54;25.13;;;14.80;;
72649;SDS011;61467;50.674;4.618;2022-08-19T03:16:22;22.48;;;13.45;;
72649;SDS011;61467;50.674;4.618;2022-08-19T03:18:52;24.83;;;13.85;;
72649;SDS011;61467;50.674;4.618;2022-08-19T03:21:21;23.88;;;13.38;;
72649;SDS011;61467;50.674;4.618;2022-08-19T03:23:50;23.37;;;13.67;;
72649;SDS011;61467;50.674;4.618;2022-08-19T03:26:20;22.38;;;12.70;;
72649;SDS011;61467;50.674;4.618;2022-08-19T03:28:46;21.52;;;12.77;;
72649;SDS011;61467;50.674;4.618;2022-08-19T03:31:15;25.05;;;13.30;;
72649;SDS011;61467;50.674;4.618;2022-08-19T03:33:44;21.02;;;11.88;;
72649;SDS011;61467;50.674;4.618;2022-08-19T03:36:17;19.27;;;11.27;;
72649;SDS011;61467;50.674;4.618;2022-08-19T03:38:47;18.45;;;11.00;;
72649;SDS011;61467;50.674;4.618;2022-08-19T03:41:17;19.90;;;12.07;;
72649;SDS011;61467;50.674;4.618;2022-08-19T03:43:45;23.42;;;12.30;;
72649;SDS011;61467;50.674;4.618;2022-08-19T03:46:14;19.77;;;11.30;;
72649;SDS011;61467;50.674;4.618;2022-08-19T03:48:43;21.93;;;11.53;;
72649;SDS011;61467;50.674;4.618;2022-08-19T03:51:15;21.10;;;11.45;;
72649;SDS011;61467;50.674;4.618;2022-08-19T03:53:42;18.95;;;10.63;;
72649;SDS011;61467;50.674;4.618;2022-08-19T03:56:11;21.15;;;10.88;;
72649;SDS011;61467;50.674;4.618;2022-08-19T03:58:38;19.33;;;10.85;;
72649;SDS011;61467;50.674;4.618;2022-08-19T04:01:06;18.27;;;10.73;;
72649;SDS011;61467;50.674;4.618;2022-08-19T04:03:33;20.48;;;12.50;;
72649;SDS011;61467;50.674;4.618;2022-08-19T04:06:08;20.75;;;12.43;;
72649;SDS011;61467;50.674;4.618;2022-08-19T04:08:36;19.17;;;11.43;;
72649;SDS011;61467;50.674;4.618;2022-08-19T04:11:05;22.63;;;12.10;;
72649;SDS011;61467;50.674;4.618;2022-08-19T04:13:35;19.83;;;11.23;;
72649;SDS011;61467;50.674;4.618;2022-08-19T04:16:02;21.92;;;13.18;;
72649;SDS011;61467;50.674;4.618;2022-08-19T04:18:30;21.13;;;12.82;;
72649;SDS011;61467;50.674;4.618;2022-08-19T04:20:58;22.20;;;12.13;;
72649;SDS011;61467;50.674;4.618;2022-08-19T04:23:26;21.38;;;11.93;;
72649;SDS011;61467;50.674;4.618;2022-08-19T04:25:53;23.83;;;13.10;;
72649;SDS011;61467;50.674;4.618;2022-08-19T04:28:21;26.27;;;13.57;;
72649;SDS011;61467;50.674;4.618;2022-08-19T04:30:52;26.33;;;13.75;;
72649;SDS011;61467;50.674;4.618;2022-08-19T04:33:20;22.00;;;12.88;;
72649;SDS011;61467;50.674;4.618;2022-08-19T04:35:49;22.65;;;12.95;;
72649;SDS011;61467;50.674;4.618;2022-08-19T04:38:17;25.23;;;13.43;;
72649;SDS011;61467;50.674;4.618;2022-08-19T04:40:48;21.20;;;11.60;;
72649;SDS011;61467;50.674;4.618;2022-08-19T04:43:34;23.17;;;13.38;;
72649;SDS011;61467;50.674;4.618;2022-08-19T04:46:05;22.42;;;12.98;;
72649;SDS011;61467;50.674;4.618;2022-08-19T04:48:33;26.88;;;14.40;;
72649;SDS011;61467;50.674;4.618;2022-08-19T04:51:00;25.93;;;12.80;;
72649;SDS011;61467;50.674;4.618;2022-08-19T04:53:27;25.95;;;13.68;;
72649;SDS011;61467;50.674;4.618;2022-08-19T04:55:55;26.85;;;15.55;;
72649;SDS011;61467;50.674;4.618;2022-08-19T04:58:22;28.27;;;14.05;;
72649;SDS011;61467;50.674;4.618;2022-08-19T05:00:49;27.55;;;15.70;;
72649;SDS011;61467;50.674;4.618;2022-08-19T05:03:17;27.53;;;14.77;;
72649;SDS011;61467;50.674;4.618;2022-08-19T05:05:45;29.00;;;15.20;;
72649;SDS011;61467;50.674;4.618;2022-08-19T05:08:13;30.55;;;15.73;;
72649;SDS011;61467;50.674;4.618;2022-08-19T05:10:45;31.60;;;15.63;;
72649;SDS011;61467;50.674;4.618;2022-08-19T05:13:12;31.27;;;16.77;;
72649;SDS011;61467;50.674;4.618;2022-08-19T05:15:39;31.60;;;16.87;;
72649;SDS011;61467;50.674;4.618;2022-08-19T05:18:06;31.02;;;15.80;;
72649;SDS011;61467;50.674;4.618;2022-08-19T05:20:52;28.42;;;14.05;;
72649;SDS011;61467;50.674;4.618;2022-08-19T05:23:36;25.85;;;13.65;;
72649;SDS011;61467;50.674;4.618;2022-08-19T05:26:03;28.88;;;14.27;;
72649;SDS011;61467;50.674;4.618;2022-08-19T05:28:30;22.20;;;12.07;;
72649;SDS011;61467;50.674;4.618;2022-08-19T05:30:57;22.67;;;12.35;;
72649;SDS011;61467;50.674;4.618;2022-08-19T05:33:23;20.98;;;12.02;;
72649;SDS011;61467;50.674;4.618;2022-08-19T05:35:51;20.52;;;11.55;;
72649;SDS011;61467;50.674;4.618;2022-08-19T05:38:20;22.23;;;10.90;;
72649;SDS011;61467;50.674;4.618;2022-08-19T05:40:46;19.20;;;10.43;;
72649;SDS011;61467;50.674;4.618;2022-08-19T05:43:14;21.52;;;10.82;;
72649;SDS011;61467;50.674;4.618;2022-08-19T05:45:42;20.90;;;10.15;;
72649;SDS011;61467;50.674;4.618;2022-08-19T05:48:09;20.88;;;11.02;;
72649;SDS011;61467;50.674;4.618;2022-08-19T05:50:37;21.60;;;11.60;;
72649;SDS011;61467;50.674;4.618;2022-08-19T05:53:06;22.73;;;12.00;;
72649;SDS011;61467;50.674;4.618;2022-08-19T05:55:33;23.63;;;11.90;;
72649;SDS011;61467;50.674;4.618;2022-08-19T05:58:01;20.40;;;10.60;;
72649;SDS011;61467;50.674;4.618;2022-08-19T06:00:28;23.80;;;12.57;;
72649;SDS011;61467;50.674;4.618;2022-08-19T06:02:56;21.33;;;11.65;;
72649;SDS011;61467;50.674;4.618;2022-08-19T06:05:24;21.93;;;12.40;;
72649;SDS011;61467;50.674;4.618;2022-08-19T06:07:51;22.58;;;11.50;;
72649;SDS011;61467;50.674;4.618;2022-08-19T06:10:19;19.98;;;11.82;;
72649;SDS011;61467;50.674;4.618;2022-08-19T06:12:46;20.88;;;11.02;;
72649;SDS011;61467;50.674;4.618;2022-08-19T06:15:14;24.60;;;12.80;;
72649;SDS011;61467;50.674;4.618;2022-08-19T06:17:41;23.47;;;12.43;;
72649;SDS011;61467;50.674;4.618;2022-08-19T06:20:10;22.52;;;12.07;;
72649;SDS011;61467;50.674;4.618;2022-08-19T06:22:40;20.85;;;12.55;;
72649;SDS011;61467;50.674;4.618;2022-08-19T06:25:09;24.08;;;12.18;;
72649;SDS011;61467;50.674;4.618;2022-08-19T06:27:38;23.77;;;12.20;;
72649;SDS011;61467;50.674;4.618;2022-08-19T06:30:05;22.47;;;12.63;;
72649;SDS011;61467;50.674;4.618;2022-08-19T06:32:33;23.92;;;12.23;;
72649;SDS011;61467;50.674;4.618;2022-08-19T06:34:59;19.65;;;11.07;;
72649;SDS011;61467;50.674;4.618;2022-08-19T06:37:26;23.33;;;12.80;;
72649;SDS011;61467;50.674;4.618;2022-08-19T06:39:53;20.33;;;10.48;;
72649;SDS011;61467;50.674;4.618;2022-08-19T06:42:20;23.73;;;12.10;;
72649;SDS011;61467;50.674;4.618;2022-08-19T06:44:48;22.58;;;11.95;;
72649;SDS011;61467;50.674;4.618;2022-08-19T06:47:16;24.50;;;12.50;;
72649;SDS011;61467;50.674;4.618;2022-08-19T06:49:44;22.30;;;11.88;;
72649;SDS011;61467;50.674;4.618;2022-08-19T06:52:11;24.63;;;12.30;;
72649;SDS011;61467;50.674;4.618;2022-08-19T06:54:38;24.60;;;11.27;;
72649;SDS011;61467;50.674;4.618;2022-08-19T06:57:05;21.67;;;11.25;;
72649;SDS011;61467;50.674;4.618;2022-08-19T06:59:34;23.50;;;11.48;;
72649;SDS011;61467;50.674;4.618;2022-08-19T07:02:04;20.63;;;10.48;;
72649;SDS011;61467;50.674;4.618;2022-08-19T07:04:32;21.92;;;10.63;;
72649;SDS011;61467;50.674;4.618;2022-08-19T07:07:01;21.03;;;10.20;;
72649;SDS011;61467;50.674;4.618;2022-08-19T07:09:31;21.42;;;10.57;;
72649;SDS011;61467;50.674;4.618;2022-08-19T07:11:58;21.70;;;10.63;;
72649;SDS011;61467;50.674;4.618;2022-08-19T07:14:26;20.80;;;10.05;;
72649;SDS011;61467;50.674;4.618;2022-08-19T07:16:54;21.15;;;9.65;;
72649;SDS011;61467;50.674;4.618;2022-08-19T07:19:24;19.20;;;9.60;;
72649;SDS011;61467;50.674;4.618;2022-08-19T07:21:52;19.38;;;9.60;;
72649;SDS011;61467;50.674;4.618;2022-08-19T07:24:21;18.92;;;9.65;;
72649;SDS011;61467;50.674;4.618;2022-08-19T07:26:49;16.48;;;8.65;;
72649;SDS011;61467;50.674;4.618;2022-08-19T07:29:20;18.05;;;8.75;;
72649;SDS011;61467;50.674;4.618;2022-08-19T07:31:48;18.33;;;9.27;;
72649;SDS011;61467;50.674;4.618;2022-08-19T07:34:16;16.10;;;8.18;;
72649;SDS011;61467;50.674;4.618;2022-08-19T07:36:44;16.83;;;8.85;;
72649;SDS011;61467;50.674;4.618;2022-08-19T07:39:13;15.77;;;8.00;;
72649;SDS011;61467;50.674;4.618;2022-08-19T07:41:42;14.30;;;8.02;;
72649;SDS011;61467;50.674;4.618;2022-08-19T07:44:09;14.70;;;7.50;;
72649;SDS011;61467;50.674;4.618;2022-08-19T07:46:38;14.43;;;7.43;;
72649;SDS011;61467;50.674;4.618;2022-08-19T07:49:08;13.32;;;6.22;;
72649;SDS011;61467;50.674;4.618;2022-08-19T07:51:44;12.55;;;7.13;;
72649;SDS011;61467;50.674;4.618;2022-08-19T07:54:12;13.55;;;7.38;;
72649;SDS011;61467;50.674;4.618;2022-08-19T07:56:38;12.07;;;5.90;;
72649;SDS011;61467;50.674;4.618;2022-08-19T07:59:05;13.82;;;7.15;;
72649;SDS011;61467;50.674;4.618;2022-08-19T08:01:32;12.75;;;6.28;;
72649;SDS011;61467;50.674;4.618;2022-08-19T08:03:59;12.05;;;6.28;;
72649;SDS011;61467;50.674;4.618;2022-08-19T08:06:45;12.75;;;5.53;;
72649;SDS011;61467;50.674;4.618;2022-08-19T08:09:30;11.43;;;5.40;;
72649;SDS011;61467;50.674;4.618;2022-08-19T08:11:59;10.82;;;4.57;;
72649;SDS011;61467;50.674;4.618;2022-08-19T08:14:29;9.25;;;4.30;;
72649;SDS011;61467;50.674;4.618;2022-08-19T08:16:58;10.77;;;4.60;;
72649;SDS011;61467;50.674;4.618;2022-08-19T08:19:25;9.02;;;3.90;;
72649;SDS011;61467;50.674;4.618;2022-08-19T08:21:55;9.10;;;4.50;;
72649;SDS011;61467;50.674;4.618;2022-08-19T08:24:23;11.13;;;4.18;;
72649;SDS011;61467;50.674;4.618;2022-08-19T08:26:50;8.90;;;4.10;;
72649;SDS011;61467;50.674;4.618;2022-08-19T08:29:17;9.55;;;4.47;;
72649;SDS011;61467;50.674;4.618;2022-08-19T08:31:45;9.35;;;4.20;;
72649;SDS011;61467;50.674;4.618;2022-08-19T08:34:12;8.37;;;3.60;;
72649;SDS011;61467;50.674;4.618;2022-08-19T08:36:43;8.43;;;3.90;;
72649;SDS011;61467;50.674;4.618;2022-08-19T08:39:13;11.10;;;4.28;;
72649;SDS011;61467;50.674;4.618;2022-08-19T08:41:45;8.35;;;3.97;;
72649;SDS011;61467;50.674;4.618;2022-08-19T08:44:19;8.20;;;3.55;;
72649;SDS011;61467;50.674;4.618;2022-08-19T08:46:48;8.27;;;3.80;;
72649;SDS011;61467;50.674;4.618;2022-08-19T08:49:20;8.48;;;3.45;;
72649;SDS011;61467;50.674;4.618;2022-08-19T08:51:53;7.00;;;3.38;;
72649;SDS011;61467;50.674;4.618;2022-08-19T08:54:28;12.70;;;4.10;;
72649;SDS011;61467;50.674;4.618;2022-08-19T08:56:59;8.43;;;3.40;;
72649;SDS011;61467;50.674;4.618;2022-08-19T08:59:29;8.03;;;3.20;;
72649;SDS011;61467;50.674;4.618;2022-08-19T09:01:59;7.45;;;3.38;;
72649;SDS011;61467;50.674;4.618;2022-08-19T09:04:26;8.80;;;3.83;;
72649;SDS011;61467;50.674;4.618;2022-08-19T09:06:58;9.38;;;3.20;;
72649;SDS011;61467;50.674;4.618;2022-08-19T09:09:42;7.88;;;2.90;;
72649;SDS011;61467;50.674;4.618;2022-08-19T09:12:13;7.07;;;2.83;;
72649;SDS011;61467;50.674;4.618;2022-08-19T09:14:46;6.40;;;2.70;;
72649;SDS011;61467;50.674;4.618;2022-08-19T09:17:16;7.57;;;2.88;;
72649;SDS011;61467;50.674;4.618;2022-08-19T09:19:48;8.20;;;3.30;;
72649;SDS011;61467;50.674;4.618;2022-08-19T09:22:17;7.78;;;3.03;;
72649;SDS011;61467;50.674;4.618;2022-08-19T09:24:47;6.13;;;2.83;;
72649;SDS011;61467;50.674;4.618;2022-08-19T09:27:14;7.35;;;2.90;;
72649;SDS011;61467;50.674;4.618;2022-08-19T09:29:41;8.70;;;3.40;;
72649;SDS011;61467;50.674;4.618;2022-08-19T09:32:08;7.10;;;3.10;;
72649;SDS011;61467;50.674;4.618;2022-08-19T09:34:34;9.10;;;3.28;;
72649;SDS011;61467;50.674;4.618;2022-08-19T09:37:01;8.33;;;3.30;;
72649;SDS011;61467;50.674;4.618;2022-08-19T09:39:28;7.35;;;2.88;;
72649;SDS011;61467;50.674;4.618;2022-08-19T09:41:57;7.00;;;3.20;;
72649;SDS011;61467;50.674;4.618;2022-08-19T09:44:24;8.05;;;3.45;;
72649;SDS011;61467;50.674;4.618;2022-08-19T09:46:50;8.98;;;3.67;;
72649;SDS011;61467;50.674;4.618;2022-08-19T09:49:17;8.07;;;3.60;;
72649;SDS011;61467;50.674;4.618;2022-08-19T09:51:49;6.88;;;3.00;;
72649;SDS011;61467;50.674;4.618;2022-08-19T09:54:16;7.25;;;2.70;;
72649;SDS011;61467;50.674;4.618;2022-08-19T09:56:43;7.40;;;2.80;;
72649;SDS011;61467;50.674;4.618;2022-08-19T09:59:12;7.82;;;2.80;;
72649;SDS011;61467;50.674;4.618;2022-08-19T10:01:39;8.27;;;3.33;;
72649;SDS011;61467;50.674;4.618;2022-08-19T10:04:06;9.07;;;3.47;;
72649;SDS011;61467;50.674;4.618;2022-08-19T10:06:33;7.00;;;3.30;;
72649;SDS011;61467;50.674;4.618;2022-08-19T10:09:03;7.97;;;3.65;;
72649;SDS011;61467;50.674;4.618;2022-08-19T10:11:31;8.48;;;3.78;;
72649;SDS011;61467;50.674;4.618;2022-08-19T10:13:59;8.93;;;4.20;;
72649;SDS011;61467;50.674;4.618;2022-08-19T10:16:27;9.43;;;3.85;;
72649;SDS011;61467;50.674;4.618;2022-08-19T10:18:54;11.02;;;5.32;;
72649;SDS011;61467;50.674;4.618;2022-08-19T10:21:21;9.18;;;3.83;;
72649;SDS011;61467;50.674;4.618;2022-08-19T10:23:51;12.43;;;6.22;;
72649;SDS011;61467;50.674;4.618;2022-08-19T10:26:20;10.10;;;5.10;;
72649;SDS011;61467;50.674;4.618;2022-08-19T10:28:48;11.85;;;6.10;;
72649;SDS011;61467;50.674;4.618;2022-08-19T10:31:18;12.48;;;5.25;;
72649;SDS011;61467;50.674;4.618;2022-08-19T10:33:49;14.95;;;6.00;;
72649;SDS011;61467;50.674;4.618;2022-08-19T10:36:22;11.10;;;5.97;;
72649;SDS011;61467;50.674;4.618;2022-08-19T10:38:51;12.07;;;5.97;;
72649;SDS011;61467;50.674;4.618;2022-08-19T10:41:23;9.75;;;4.95;;
72649;SDS011;61467;50.674;4.618;2022-08-19T10:43:51;12.98;;;6.20;;
72649;SDS011;61467;50.674;4.618;2022-08-19T10:46:19;11.00;;;5.22;;
72649;SDS011;61467;50.674;4.618;2022-08-19T10:48:49;12.68;;;5.47;;
72649;SDS011;61467;50.674;4.618;2022-08-19T10:51:16;11.80;;;5.20;;
72649;SDS011;61467;50.674;4.618;2022-08-19T10:54:01;11.95;;;5.18;;
72649;SDS011;61467;50.674;4.618;2022-08-19T10:56:28;10.85;;;4.53;;
72649;SDS011;61467;50.674;4.618;2022-08-19T10:59:12;10.60;;;4.72;;
72649;SDS011;61467;50.674;4.618;2022-08-19T11:01:40;9.27;;;4.20;;
72649;SDS011;61467;50.674;4.618;2022-08-19T11:04:09;12.23;;;5.37;;
72649;SDS011;61467;50.674;4.618;2022-08-19T11:06:38;9.63;;;4.65;;
72649;SDS011;61467;50.674;4.618;2022-08-19T11:09:06;11.00;;;5.10;;
72649;SDS011;61467;50.674;4.618;2022-08-19T11:11:34;10.82;;;5.57;;
72649;SDS011;61467;50.674;4.618;2022-08-19T11:14:05;12.32;;;6.07;;
72649;SDS011;61467;50.674;4.618;2022-08-19T11:16:32;10.93;;;5.13;;
72649;SDS011;61467;50.674;4.618;2022-08-19T11:18:59;9.52;;;4.75;;
72649;SDS011;61467;50.674;4.618;2022-08-19T11:21:28;10.77;;;5.00;;
72649;SDS011;61467;50.674;4.618;2022-08-19T11:23:57;12.63;;;5.70;;
72649;SDS011;61467;50.674;4.618;2022-08-19T11:26:26;10.82;;;5.40;;
72649;SDS011;61467;50.674;4.618;2022-08-19T11:28:55;10.10;;;4.70;;
72649;SDS011;61467;50.674;4.618;2022-08-19T11:31:24;12.27;;;4.65;;
72649;SDS011;61467;50.674;4.618;2022-08-19T11:33:55;8.90;;;4.40;;
72649;SDS011;61467;50.674;4.618;2022-08-19T11:36:22;8.40;;;4.30;;
72649;SDS011;61467;50.674;4.618;2022-08-19T11:38:50;10.40;;;4.68;;
72649;SDS011;61467;50.674;4.618;2022-08-19T11:41:17;10.37;;;5.10;;
72649;SDS011;61467;50.674;4.618;2022-08-19T11:43:46;9.68;;;5.15;;
72649;SDS011;61467;50.674;4.618;2022-08-19T11:46:13;10.80;;;5.13;;
72649;SDS011;61467;50.674;4.618;2022-08-19T11:48:41;10.30;;;4.35;;
72649;SDS011;61467;50.674;4.618;2022-08-19T11:51:09;12.15;;;5.30;;
72649;SDS011;61467;50.674;4.618;2022-08-19T11:53:38;12.67;;;5.37;;
72649;SDS011;61467;50.674;4.618;2022-08-19T11:56:08;11.85;;;5.68;;
72649;SDS011;61467;50.674;4.618;2022-08-19T11:58:35;12.07;;;6.00;;
72649;SDS011;61467;50.674;4.618;2022-08-19T12:01:04;13.32;;;6.50;;
72649;SDS011;61467;50.674;4.618;2022-08-19T12:03:32;15.23;;;7.72;;
72649;SDS011;61467;50.674;4.618;2022-08-19T12:05:58;12.97;;;7.10;;
72649;SDS011;61467;50.674;4.618;2022-08-19T12:08:29;14.57;;;7.88;;
72649;SDS011;61467;50.674;4.618;2022-08-19T12:10:57;13.25;;;6.80;;
72649;SDS011;61467;50.674;4.618;2022-08-19T12:13:28;9.13;;;4.78;;
72649;SDS011;61467;50.674;4.618;2022-08-19T12:15:55;9.35;;;4.93;;
72649;SDS011;61467;50.674;4.618;2022-08-19T12:18:23;9.67;;;5.20;;
72649;SDS011;61467;50.674;4.618;2022-08-19T12:20:51;10.88;;;5.68;;
72649;SDS011;61467;50.674;4.618;2022-08-19T12:23:19;11.80;;;6.70;;
72649;SDS011;61467;50.674;4.618;2022-08-19T12:25:47;10.88;;;5.50;;
72649;SDS011;61467;50.674;4.618;2022-08-19T12:28:16;11.00;;;5.43;;
72649;SDS011;61467;50.674;4.618;2022-08-19T12:30:45;10.40;;;5.33;;
72649;SDS011;61467;50.674;4.618;2022-08-19T12:33:12;10.75;;;5.40;;
72649;SDS011;61467;50.674;4.618;2022-08-19T12:35:40;9.40;;;5.10;;
72649;SDS011;61467;50.674;4.618;2022-08-19T12:38:07;9.10;;;4.45;;
72649;SDS011;61467;50.674;4.618;2022-08-19T12:40:34;10.13;;;4.65;;
72649;SDS011;61467;50.674;4.618;2022-08-19T12:43:00;10.07;;;4.80;;
72649;SDS011;61467;50.674;4.618;2022-08-19T12:45:27;10.02;;;4.80;;
72649;SDS011;61467;50.674;4.618;2022-08-19T12:47:55;9.65;;;5.38;;
72649;SDS011;61467;50.674;4.618;2022-08-19T12:50:22;8.30;;;4.75;;
72649;SDS011;61467;50.674;4.618;2022-08-19T12:52:49;8.55;;;4.18;;
72649;SDS011;61467;50.674;4.618;2022-08-19T12:55:17;8.53;;;4.10;;
72649;SDS011;61467;50.674;4.618;2022-08-19T12:57:44;8.45;;;4.57;;
72649;SDS011;61467;50.674;4.618;2022-08-19T13:00:14;8.40;;;5.13;;
72649;SDS011;61467;50.674;4.618;2022-08-19T13:02:44;10.15;;;4.35;;
72649;SDS011;61467;50.674;4.618;2022-08-19T13:05:14;9.40;;;5.07;;
72649;SDS011;61467;50.674;4.618;2022-08-19T13:07:45;8.43;;;4.83;;
72649;SDS011;61467;50.674;4.618;2022-08-19T13:10:13;9.27;;;4.55;;
72649;SDS011;61467;50.674;4.618;2022-08-19T13:12:42;8.82;;;5.43;;
72649;SDS011;61467;50.674;4.618;2022-08-19T13:15:10;9.32;;;4.72;;
72649;SDS011;61467;50.674;4.618;2022-08-19T13:17:37;8.60;;;4.40;;
72649;SDS011;61467;50.674;4.618;2022-08-19T13:20:06;7.50;;;4.30;;
72649;SDS011;61467;50.674;4.618;2022-08-19T13:22:36;8.07;;;4.22;;
72649;SDS011;61467;50.674;4.618;2022-08-19T13:25:03;8.93;;;4.60;;
72649;SDS011;61467;50.674;4.618;2022-08-19T13:27:32;8.70;;;4.15;;
72649;SDS011;61467;50.674;4.618;2022-08-19T13:29:59;8.60;;;4.30;;
72649;SDS011;61467;50.674;4.618;2022-08-19T13:32:44;8.47;;;4.00;;
72649;SDS011;61467;50.674;4.618;2022-08-19T13:35:28;7.32;;;3.70;;
72649;SDS011;61467;50.674;4.618;2022-08-19T13:37:56;9.65;;;3.90;;
72649;SDS011;61467;50.674;4.618;2022-08-19T13:40:24;9.48;;;3.60;;
72649;SDS011;61467;50.674;4.618;2022-08-19T13:42:52;7.60;;;2.85;;
72649;SDS011;61467;50.674;4.618;2022-08-19T13:45:21;8.87;;;3.10;;
72649;SDS011;61467;50.674;4.618;2022-08-19T13:47:51;7.28;;;3.35;;
72649;SDS011;61467;50.674;4.618;2022-08-19T13:50:19;7.05;;;3.65;;
72649;SDS011;61467;50.674;4.618;2022-08-19T13:52:50;7.55;;;3.50;;
72649;SDS011;61467;50.674;4.618;2022-08-19T13:55:21;7.75;;;3.38;;
72649;SDS011;61467;50.674;4.618;2022-08-19T13:57:49;7.67;;;3.33;;
72649;SDS011;61467;50.674;4.618;2022-08-19T14:00:17;9.07;;;3.00;;
72649;SDS011;61467;50.674;4.618;2022-08-19T14:02:44;8.45;;;3.08;;
72649;SDS011;61467;50.674;4.618;2022-08-19T14:05:14;7.75;;;2.95;;
72649;SDS011;61467;50.674;4.618;2022-08-19T14:07:42;7.50;;;3.03;;
72649;SDS011;61467;50.674;4.618;2022-08-19T14:10:09;7.87;;;2.70;;
72649;SDS011;61467;50.674;4.618;2022-08-19T14:12:38;5.95;;;2.35;;
72649;SDS011;61467;50.674;4.618;2022-08-19T14:15:06;6.95;;;2.28;;
72649;SDS011;61467;50.674;4.618;2022-08-19T14:17:36;5.65;;;1.50;;
72649;SDS011;61467;50.674;4.618;2022-08-19T14:20:04;6.75;;;2.00;;
72649;SDS011;61467;50.674;4.618;2022-08-19T14:22:34;6.20;;;1.30;;
72649;SDS011;61467;50.674;4.618;2022-08-19T14:25:01;5.32;;;1.38;;
72649;SDS011;61467;50.674;4.618;2022-08-19T14:27:29;5.57;;;1.83;;
72649;SDS011;61467;50.674;4.618;2022-08-19T14:29:58;5.45;;;1.58;;
72649;SDS011;61467;50.674;4.618;2022-08-19T14:32:24;4.07;;;1.60;;
72649;SDS011;61467;50.674;4.618;2022-08-19T14:34:52;4.43;;;1.70;;
72649;SDS011;61467;50.674;4.618;2022-08-19T14:37:19;5.00;;;1.65;;
72649;SDS011;61467;50.674;4.618;2022-08-19T14:39:46;7.60;;;1.70;;